Station Historical Data
Daily Summary for January 10, 2017 Units:  English    Metric   Both
« Previous Day
Next Day »
Daily Weekly Monthly Yearly Custom
  High: Low: Average:
Temperature: 46.7 °F 40.4 °F 43.6 °F
Dew Point: 45.9 °F 39.3 °F 42.6 °F
Humidity: 98 % 96 % 97 %
Wind Speed: 28.0 mph 0.0 mph 12.2 mph
Wind Gust: 42.0 mph - -
Wind:- - South
Pressure: 30.07 in 29.66 in -
Precipitation: 0.00 in    
Historical Graphs
 
 
Tabular Data for January 10, 2017
Time Temperature Dew Point Pressure Wind Wind Speed Wind Gust Humidity Rainfall Rate (Hourly) solar
00:03 43.1 °F 42.0 °F 30.06 in South 10.0 mph 25.0 mph 96 % 0.13 in 0.00 W/m2
00:08 43.0 °F 41.9 °F 30.06 in SW 7.0 mph 28.0 mph 96 % 0.07 in 0.00 W/m2
00:13 42.9 °F 41.8 °F 30.06 in SW 13.0 mph 19.0 mph 96 % 0.06 in 0.00 W/m2
00:18 42.9 °F 41.8 °F 30.06 in SSW 16.0 mph 20.0 mph 96 % 0.06 in 0.00 W/m2
00:23 42.9 °F 41.8 °F 30.05 in SW 4.0 mph 24.0 mph 96 % 0.06 in 0.00 W/m2
00:28 42.9 °F 41.8 °F 30.05 in South 10.0 mph 23.0 mph 96 % 0.07 in 0.00 W/m2
00:33 42.9 °F 41.8 °F 30.05 in SW 12.0 mph 28.0 mph 96 % 0.07 in 0.00 W/m2
00:38 42.9 °F 41.8 °F 30.04 in South 10.0 mph 25.0 mph 96 % 0.08 in 0.00 W/m2
00:43 42.9 °F 41.8 °F 30.05 in SSW 14.0 mph 31.0 mph 96 % 0.14 in 0.00 W/m2
00:48 43.0 °F 41.9 °F 30.04 in SSW 16.0 mph 23.0 mph 96 % 0.09 in 0.00 W/m2
00:53 43.1 °F 42.0 °F 30.04 in SSW 14.0 mph 21.0 mph 96 % 0.16 in 0.00 W/m2
00:58 43.1 °F 42.0 °F 30.04 in SSE 6.0 mph 31.0 mph 96 % 0.12 in 0.00 W/m2
01:03 43.1 °F 42.0 °F 30.04 in SSW 11.0 mph 18.0 mph 96 % 0.18 in 0.00 W/m2
01:08 43.2 °F 42.1 °F 30.05 in WSW 4.0 mph 17.0 mph 96 % 0.28 in 0.00 W/m2
01:13 43.2 °F 42.1 °F 30.06 in South 12.0 mph 24.0 mph 96 % 0.22 in 0.00 W/m2
01:18 43.2 °F 42.1 °F 30.06 in SW 19.0 mph 19.0 mph 96 % 0.25 in 0.00 W/m2
01:23 43.2 °F 42.1 °F 30.05 in SSW 6.0 mph 14.0 mph 96 % 0.59 in 0.00 W/m2
01:28 43.2 °F 42.1 °F 30.06 in SSW 11.0 mph 17.0 mph 96 % 0.26 in 0.00 W/m2
01:33 43.3 °F 42.2 °F 30.07 in SW 18.0 mph 24.0 mph 96 % 0.25 in 0.00 W/m2
01:38 43.3 °F 42.2 °F 30.06 in South 8.0 mph 15.0 mph 96 % 0.18 in 0.00 W/m2
01:43 43.3 °F 42.2 °F 30.06 in SSW 13.0 mph 25.0 mph 96 % 0.17 in 0.00 W/m2
01:48 43.3 °F 42.2 °F 30.07 in SSE 19.0 mph 24.0 mph 96 % 0.12 in 0.00 W/m2
01:58 43.3 °F 42.2 °F 30.06 in SSW 17.0 mph 20.0 mph 96 % 0.16 in 0.00 W/m2
02:03 43.3 °F 42.2 °F 30.06 in South 9.0 mph 25.0 mph 96 % 0.14 in 0.00 W/m2
02:08 43.3 °F 42.2 °F 30.06 in South 7.0 mph 21.0 mph 96 % 0.15 in 0.00 W/m2
02:13 43.3 °F 42.2 °F 30.06 in SSW 7.0 mph 14.0 mph 96 % 0.17 in 0.00 W/m2
02:18 43.3 °F 42.2 °F 30.06 in South 15.0 mph 24.0 mph 96 % 0.18 in 0.00 W/m2
02:23 43.3 °F 42.2 °F 30.06 in SSW 1.0 mph 25.0 mph 96 % 0.14 in 0.00 W/m2
02:28 43.3 °F 42.2 °F 30.06 in SSW 10.0 mph 24.0 mph 96 % 0.12 in 0.00 W/m2
02:33 43.3 °F 42.2 °F 30.06 in South 11.0 mph 22.0 mph 96 % 0.18 in 0.00 W/m2
02:38 43.3 °F 42.2 °F 30.06 in South 15.0 mph 20.0 mph 96 % 0.19 in 0.00 W/m2
02:43 43.3 °F 42.2 °F 30.06 in SSE 15.0 mph 20.0 mph 96 % 0.19 in 0.00 W/m2
02:48 43.3 °F 42.2 °F 30.05 in SSE 10.0 mph 14.0 mph 96 % 0.13 in 0.00 W/m2
02:53 43.3 °F 42.2 °F 30.05 in South 4.0 mph 16.0 mph 96 % 0.18 in 0.00 W/m2
02:58 43.2 °F 42.1 °F 30.05 in SSE 9.0 mph 14.0 mph 96 % 0.15 in 0.00 W/m2
03:03 43.2 °F 42.1 °F 30.05 in SW 7.0 mph 14.0 mph 96 % 0.20 in 0.00 W/m2
03:09 43.1 °F 42.0 °F 30.05 in SSE 4.0 mph 14.0 mph 96 % 0.20 in 0.00 W/m2
03:14 43.1 °F 42.0 °F 30.05 in SSE 18.0 mph 19.0 mph 96 % 0.15 in 0.00 W/m2
03:19 43.1 °F 42.0 °F 30.04 in SE 4.0 mph 20.0 mph 96 % 0.17 in 0.00 W/m2
03:24 43.0 °F 41.9 °F 30.04 in SSE 10.0 mph 18.0 mph 96 % 0.17 in 0.00 W/m2
03:29 43.0 °F 41.9 °F 30.04 in South 1.0 mph 18.0 mph 96 % 0.13 in 0.00 W/m2
03:34 43.0 °F 41.9 °F 30.04 in South 13.0 mph 21.0 mph 96 % 0.17 in 0.00 W/m2
03:39 42.9 °F 41.8 °F 30.03 in South 16.0 mph 16.0 mph 96 % 0.19 in 0.00 W/m2
03:44 42.9 °F 41.8 °F 30.03 in South 7.0 mph 21.0 mph 96 % 0.17 in 0.00 W/m2
03:49 43.0 °F 41.9 °F 30.03 in SSE 11.0 mph 20.0 mph 96 % 0.15 in 0.00 W/m2
03:54 43.0 °F 41.9 °F 30.03 in South 7.0 mph 27.0 mph 96 % 0.14 in 0.00 W/m2
03:59 43.0 °F 41.9 °F 30.03 in SSE 16.0 mph 23.0 mph 96 % 0.12 in 0.00 W/m2
04:04 43.1 °F 42.0 °F 30.03 in SW 17.0 mph 21.0 mph 96 % 0.15 in 0.00 W/m2
04:09 43.1 °F 42.0 °F 30.03 in SSW 13.0 mph 19.0 mph 96 % 0.13 in 0.00 W/m2
04:14 43.1 °F 42.0 °F 30.02 in South 10.0 mph 19.0 mph 96 % 0.14 in 0.00 W/m2
04:19 43.2 °F 42.1 °F 30.02 in South 13.0 mph 18.0 mph 96 % 0.13 in 0.00 W/m2
04:24 43.2 °F 42.1 °F 30.02 in SW 10.0 mph 26.0 mph 96 % 0.20 in 0.00 W/m2
04:29 43.3 °F 42.2 °F 30.02 in South 7.0 mph 22.0 mph 96 % 0.17 in 0.00 W/m2
04:34 43.3 °F 42.2 °F 30.02 in SSE 4.0 mph 16.0 mph 96 % 0.20 in 0.00 W/m2
04:39 43.4 °F 42.3 °F 30.01 in South 3.0 mph 21.0 mph 96 % 0.20 in 0.00 W/m2
04:44 43.4 °F 42.3 °F 30.01 in SSW 12.0 mph 18.0 mph 96 % 0.19 in 0.00 W/m2
04:49 43.4 °F 42.3 °F 30.01 in South 9.0 mph 23.0 mph 96 % 0.14 in 0.00 W/m2
04:54 43.5 °F 42.4 °F 30.00 in SSE 13.0 mph 19.0 mph 96 % 0.12 in 0.00 W/m2
04:59 43.5 °F 42.4 °F 30.00 in South 24.0 mph 24.0 mph 96 % 0.10 in 0.00 W/m2
05:04 43.6 °F 42.5 °F 30.00 in South 16.0 mph 25.0 mph 96 % 0.12 in 0.00 W/m2
05:09 43.6 °F 42.5 °F 30.00 in SSE 9.0 mph 24.0 mph 96 % 0.19 in 0.00 W/m2
05:14 43.7 °F 42.6 °F 29.99 in SSE 10.0 mph 25.0 mph 96 % 0.12 in 0.00 W/m2
05:19 43.7 °F 42.6 °F 29.99 in SSW 8.0 mph 28.0 mph 96 % 0.18 in 0.00 W/m2
05:29 43.8 °F 42.7 °F 29.99 in SSE 21.0 mph 25.0 mph 96 % 0.09 in 0.00 W/m2
05:34 43.8 °F 42.7 °F 29.99 in South 10.0 mph 23.0 mph 96 % 0.12 in 0.00 W/m2
05:39 43.8 °F 42.7 °F 29.99 in South 12.0 mph 23.0 mph 96 % 0.14 in 0.00 W/m2
05:44 43.8 °F 42.7 °F 29.99 in SSE 14.0 mph 23.0 mph 96 % 0.13 in 0.00 W/m2
05:54 43.9 °F 43.1 °F 29.99 in SSE 7.0 mph 22.0 mph 97 % 0.12 in 0.00 W/m2
05:59 43.9 °F 43.1 °F 29.99 in SE 8.0 mph 20.0 mph 97 % 0.14 in 0.00 W/m2
06:04 43.8 °F 42.7 °F 29.99 in South 18.0 mph 20.0 mph 96 % 0.12 in 0.00 W/m2
06:09 43.8 °F 43.0 °F 29.99 in South 8.0 mph 22.0 mph 97 % 0.13 in 0.00 W/m2
06:14 43.8 °F 42.7 °F 29.99 in SSE 8.0 mph 13.0 mph 96 % 0.14 in 0.00 W/m2
06:19 43.8 °F 42.7 °F 29.99 in SE 12.0 mph 13.0 mph 96 % 0.19 in 0.00 W/m2
06:24 43.7 °F 42.6 °F 29.99 in SSE 9.0 mph 18.0 mph 96 % 0.12 in 0.00 W/m2
06:29 43.5 °F 42.4 °F 29.99 in SE 14.0 mph 17.0 mph 96 % 0.12 in 0.00 W/m2
06:34 43.4 °F 42.3 °F 29.99 in South 11.0 mph 11.0 mph 96 % 0.27 in 0.00 W/m2
06:39 43.2 °F 42.1 °F 29.99 in SSE 12.0 mph 17.0 mph 96 % 0.19 in 0.00 W/m2
06:44 43.0 °F 41.9 °F 29.99 in SSE 15.0 mph 15.0 mph 96 % 0.16 in 0.00 W/m2
06:49 42.8 °F 41.7 °F 29.99 in South 7.0 mph 16.0 mph 96 % 0.13 in 0.00 W/m2
06:54 42.7 °F 41.6 °F 30.00 in SSE 6.0 mph 19.0 mph 96 % 0.14 in 0.00 W/m2
06:59 42.6 °F 41.5 °F 29.99 in South 11.0 mph 14.0 mph 96 % 0.18 in 0.00 W/m2
07:04 42.6 °F 41.5 °F 30.00 in South 9.0 mph 15.0 mph 96 % 0.17 in 0.00 W/m2
07:09 42.5 °F 41.4 °F 30.00 in SSE 8.0 mph 10.0 mph 96 % 0.31 in 0.00 W/m2
07:19 42.5 °F 41.4 °F 30.00 in South 6.0 mph 12.0 mph 96 % 0.30 in 0.00 W/m2
07:29 42.4 °F 41.3 °F 29.99 in Calm   9.0 mph 96 % 0.27 in 0.00 W/m2
07:34 42.4 °F 41.3 °F 29.99 in SSE 6.0 mph 8.0 mph 96 % 0.23 in 0.00 W/m2
07:39 42.5 °F 41.4 °F 29.99 in SSE 1.0 mph 11.0 mph 96 % 0.20 in 0.00 W/m2
07:44 42.4 °F 41.3 °F 30.00 in Calm   7.0 mph 96 % 0.23 in 0.00 W/m2
07:49 42.4 °F 41.3 °F 29.99 in SSE 6.0 mph 12.0 mph 96 % 0.15 in 0.00 W/m2
07:54 42.4 °F 41.3 °F 29.99 in SSE 6.0 mph 12.0 mph 96 % 0.29 in 0.00 W/m2
07:59 42.3 °F 41.2 °F 29.99 in SE 7.0 mph 15.0 mph 96 % 0.35 in 5.00 W/m2
08:04 42.3 °F 41.2 °F 29.99 in SSE 10.0 mph 17.0 mph 96 % 0.16 in 5.00 W/m2
08:09 42.2 °F 41.1 °F 29.99 in SSE 11.0 mph 12.0 mph 96 % 0.24 in 5.00 W/m2
08:19 42.1 °F 41.0 °F 29.99 in SSE 4.0 mph 21.0 mph 96 % 0.19 in 7.00 W/m2
08:24 42.1 °F 41.0 °F 29.99 in SE 10.0 mph 18.0 mph 96 % 0.25 in 7.00 W/m2
08:30 42.0 °F 40.9 °F 30.00 in South 15.0 mph 15.0 mph 96 % 0.36 in 7.00 W/m2
08:35 42.0 °F 40.9 °F 30.00 in SSE 9.0 mph 17.0 mph 96 % 0.19 in 7.00 W/m2
08:40 42.0 °F 40.9 °F 30.01 in SSW 20.0 mph 24.0 mph 96 % 0.18 in 9.00 W/m2
08:45 42.1 °F 41.0 °F 30.00 in South 13.0 mph 25.0 mph 96 % 0.12 in 12.00 W/m2
08:50 42.3 °F 41.2 °F 30.00 in South 5.0 mph 22.0 mph 96 % 0.14 in 9.00 W/m2
08:55 42.4 °F 41.3 °F 30.01 in South 8.0 mph 22.0 mph 96 % 0.17 in 9.00 W/m2
09:00 42.5 °F 41.4 °F 30.00 in SSW 8.0 mph 20.0 mph 96 % 0.14 in 9.00 W/m2
09:05 42.7 °F 41.6 °F 30.00 in South 14.0 mph 24.0 mph 96 % 0.17 in 7.00 W/m2
09:10 42.8 °F 42.0 °F 30.00 in South 19.0 mph 25.0 mph 97 % 0.14 in 11.00 W/m2
09:15 42.9 °F 42.1 °F 30.01 in SSE 7.0 mph 23.0 mph 97 % 0.10 in 9.00 W/m2
09:20 43.0 °F 42.2 °F 30.01 in SW 9.0 mph 25.0 mph 97 % 0.10 in 12.00 W/m2
09:25 43.0 °F 42.2 °F 30.01 in SSE 21.0 mph 23.0 mph 97 % 0.09 in 11.00 W/m2
09:30 43.0 °F 42.2 °F 30.00 in SSE 12.0 mph 25.0 mph 97 % 0.09 in 16.00 W/m2
09:35 43.0 °F 42.2 °F 30.00 in SSE 11.0 mph 30.0 mph 97 % 0.09 in 12.00 W/m2
09:40 43.0 °F 42.2 °F 30.00 in ESE 4.0 mph 25.0 mph 97 % 0.14 in 14.00 W/m2
09:45 43.1 °F 42.3 °F 30.01 in SSE 19.0 mph 31.0 mph 97 % 0.13 in 14.00 W/m2
09:50 43.2 °F 42.1 °F 30.01 in SSW 3.0 mph 25.0 mph 96 % 0.16 in 21.00 W/m2
09:55 43.3 °F 42.5 °F 30.01 in South 16.0 mph 27.0 mph 97 % 0.14 in 18.00 W/m2
10:00 43.3 °F 42.5 °F 30.01 in SSE 7.0 mph 26.0 mph 97 % 0.09 in 16.00 W/m2
10:05 43.4 °F 42.6 °F 30.01 in South 14.0 mph 26.0 mph 97 % 0.09 in 16.00 W/m2
10:10 43.4 °F 42.6 °F 30.01 in SSE 6.0 mph 20.0 mph 97 % 0.09 in 16.00 W/m2
10:15 43.4 °F 42.6 °F 30.01 in SSE 10.0 mph 29.0 mph 97 % 0.18 in 23.00 W/m2
10:20 43.4 °F 42.6 °F 30.00 in ESE 17.0 mph 25.0 mph 97 % 0.09 in 18.00 W/m2
10:25 43.4 °F 42.6 °F 30.00 in SSW 10.0 mph 23.0 mph 97 % 0.09 in 21.00 W/m2
10:30 43.4 °F 42.6 °F 30.00 in South 9.0 mph 28.0 mph 97 % 0.09 in 21.00 W/m2
10:35 43.4 °F 42.6 °F 30.00 in SSE 18.0 mph 25.0 mph 97 % 0.12 in 21.00 W/m2
10:40 43.4 °F 42.3 °F 30.00 in SSE 11.0 mph 27.0 mph 96 % 0.08 in 21.00 W/m2
10:45 43.3 °F 42.2 °F 30.00 in South 12.0 mph 30.0 mph 96 % 0.12 in 21.00 W/m2
10:50 43.3 °F 42.2 °F 30.01 in South 19.0 mph 27.0 mph 96 % 0.10 in 18.00 W/m2
10:55 43.3 °F 42.2 °F 30.01 in SSE 4.0 mph 29.0 mph 96 % 0.09 in 18.00 W/m2
11:00 43.3 °F 42.2 °F 30.00 in South 16.0 mph 30.0 mph 96 % 0.12 in 23.00 W/m2
11:05 43.2 °F 42.1 °F 30.00 in SE 16.0 mph 31.0 mph 96 % 0.07 in 16.00 W/m2
11:10 43.1 °F 42.0 °F 30.00 in SSE 12.0 mph 24.0 mph 96 % 0.05 in 18.00 W/m2
11:15 43.0 °F 42.2 °F 29.99 in South 20.0 mph 24.0 mph 97 % 0.05 in 21.00 W/m2
11:20 42.9 °F 41.8 °F 29.99 in SSE 18.0 mph 20.0 mph 96 % 0.05 in 21.00 W/m2
11:25 42.8 °F 41.7 °F 29.98 in SSE 18.0 mph 22.0 mph 96 % 0.05 in 19.00 W/m2
11:30 42.7 °F 41.6 °F 29.97 in SE 11.0 mph 22.0 mph 96 % 0.07 in 23.00 W/m2
11:35 42.7 °F 41.6 °F 29.97 in South 20.0 mph 21.0 mph 96 % 0.07 in 19.00 W/m2
11:40 42.6 °F 41.5 °F 29.95 in SSE 13.0 mph 25.0 mph 96 % 0.10 in 25.00 W/m2
11:45 42.6 °F 41.5 °F 29.95 in SE 9.0 mph 26.0 mph 96 % 0.09 in 19.00 W/m2
11:50 42.6 °F 41.5 °F 29.95 in SSE 8.0 mph 17.0 mph 96 % 0.09 in 21.00 W/m2
11:55 42.5 °F 41.4 °F 29.94 in SE 12.0 mph 30.0 mph 96 % 0.09 in 28.00 W/m2
12:00 42.5 °F 41.4 °F 29.94 in SSE 8.0 mph 21.0 mph 96 % 0.09 in 18.00 W/m2
12:05 42.4 °F 41.3 °F 29.94 in SSE 15.0 mph 25.0 mph 96 % 0.13 in 21.00 W/m2
12:10 42.3 °F 41.2 °F 29.94 in SSE 9.0 mph 25.0 mph 96 % 0.12 in 21.00 W/m2
12:15 42.0 °F 40.9 °F 29.93 in SE 14.0 mph 25.0 mph 96 % 0.09 in 26.00 W/m2
12:20 41.8 °F 40.8 °F 29.92 in South 18.0 mph 24.0 mph 96 % 0.09 in 21.00 W/m2
12:25 41.6 °F 40.5 °F 29.91 in SSE 21.0 mph 22.0 mph 96 % 0.09 in 26.00 W/m2
12:30 41.4 °F 40.3 °F 29.91 in SSE 16.0 mph 24.0 mph 96 % 0.07 in 21.00 W/m2
12:35 41.3 °F 40.2 °F 29.91 in SSE 14.0 mph 25.0 mph 96 % 0.07 in 23.00 W/m2
12:40 41.1 °F 40.0 °F 29.91 in SE 26.0 mph 27.0 mph 96 % 0.07 in 23.00 W/m2
12:45 41.0 °F 40.0 °F 29.91 in SSE 19.0 mph 26.0 mph 96 % 0.09 in 26.00 W/m2
12:50 40.8 °F 39.8 °F 29.91 in SE 13.0 mph 24.0 mph 96 % 0.12 in 30.00 W/m2
12:55 40.7 °F 39.7 °F 29.90 in SSE 18.0 mph 26.0 mph 96 % 0.12 in 26.00 W/m2
13:00 40.7 °F 39.7 °F 29.90 in SSE 11.0 mph 23.0 mph 96 % 0.10 in 23.00 W/m2
13:05 40.6 °F 39.5 °F 29.89 in SSE 10.0 mph 27.0 mph 96 % 0.12 in 26.00 W/m2
13:10 40.5 °F 39.5 °F 29.88 in SSE 11.0 mph 29.0 mph 96 % 0.12 in 26.00 W/m2
13:15 40.5 °F 39.5 °F 29.88 in SSE 16.0 mph 27.0 mph 96 % 0.09 in 25.00 W/m2
13:20 40.4 °F 39.3 °F 29.88 in SSE 14.0 mph 30.0 mph 96 % 0.10 in 18.00 W/m2
13:26 40.4 °F 39.3 °F 29.88 in South 12.0 mph 25.0 mph 96 % 0.13 in 19.00 W/m2
13:31 40.5 °F 39.5 °F 29.88 in SSE 21.0 mph 23.0 mph 96 % 0.13 in 16.00 W/m2
13:36 40.5 °F 39.5 °F 29.88 in SSE 10.0 mph 25.0 mph 96 % 0.10 in 16.00 W/m2
13:41 40.6 °F 39.5 °F 29.88 in SSE 7.0 mph 21.0 mph 96 % 0.16 in 14.00 W/m2
13:46 40.6 °F 39.5 °F 29.88 in Calm   14.0 mph 96 % 0.36 in 12.00 W/m2
13:51 40.6 °F 39.5 °F 29.88 in SSW 14.0 mph 22.0 mph 96 % 0.22 in 14.00 W/m2
13:56 40.6 °F 39.5 °F 29.88 in SSE 21.0 mph 21.0 mph 96 % 0.17 in 14.00 W/m2
14:01 40.6 °F 39.5 °F 29.87 in SE 10.0 mph 29.0 mph 96 % 0.16 in 16.00 W/m2
14:06 40.7 °F 39.7 °F 29.87 in SSE 9.0 mph 26.0 mph 96 % 0.14 in 14.00 W/m2
14:11 40.9 °F 39.8 °F 29.87 in SSE 10.0 mph 26.0 mph 96 % 0.10 in 14.00 W/m2
14:16 41.0 °F 40.0 °F 29.87 in SSE 9.0 mph 24.0 mph 96 % 0.14 in 16.00 W/m2
14:21 41.1 °F 40.0 °F 29.86 in SSE 20.0 mph 30.0 mph 96 % 0.13 in 19.00 W/m2
14:26 41.2 °F 40.2 °F 29.86 in SE 19.0 mph 27.0 mph 96 % 0.18 in 21.00 W/m2
14:31 41.4 °F 40.3 °F 29.86 in South 5.0 mph 28.0 mph 96 % 0.14 in 21.00 W/m2
14:36 41.6 °F 40.5 °F 29.86 in SSW 11.0 mph 35.0 mph 96 % 0.12 in 23.00 W/m2
14:41 41.8 °F 41.0 °F 29.86 in South 15.0 mph 29.0 mph 97 % 0.15 in 11.00 W/m2
14:46 42.0 °F 41.2 °F 29.86 in SSE 22.0 mph 25.0 mph 97 % 0.14 in 12.00 W/m2
14:51 42.2 °F 41.4 °F 29.85 in South 21.0 mph 27.0 mph 97 % 0.18 in 12.00 W/m2
14:56 42.3 °F 41.5 °F 29.86 in SSE 16.0 mph 26.0 mph 97 % 0.12 in 12.00 W/m2
15:01 42.4 °F 41.6 °F 29.85 in SSE 17.0 mph 26.0 mph 97 % 0.09 in 9.00 W/m2
15:06 42.5 °F 41.7 °F 29.85 in South 16.0 mph 30.0 mph 97 % 0.08 in 12.00 W/m2
15:11 42.6 °F 41.8 °F 29.84 in South 18.0 mph 27.0 mph 97 % 0.08 in 14.00 W/m2
15:16 42.7 °F 41.9 °F 29.83 in South 15.0 mph 28.0 mph 97 % 0.12 in 12.00 W/m2
15:21 42.8 °F 42.0 °F 29.83 in SSE 14.0 mph 21.0 mph 97 % 0.14 in 11.00 W/m2
15:26 42.9 °F 42.1 °F 29.82 in South 7.0 mph 27.0 mph 97 % 0.15 in 9.00 W/m2
15:31 43.0 °F 42.2 °F 29.82 in South 12.0 mph 12.0 mph 97 % 0.09 in 7.00 W/m2
15:36 43.2 °F 42.4 °F 29.82 in South 20.0 mph 20.0 mph 97 % 0.16 in 7.00 W/m2
15:41 43.3 °F 42.5 °F 29.81 in SE 14.0 mph 19.0 mph 97 % 0.13 in 5.00 W/m2
15:46 43.4 °F 42.6 °F 29.80 in SSW 9.0 mph 10.0 mph 97 % 0.15 in 5.00 W/m2
15:51 43.5 °F 42.7 °F 29.80 in South 13.0 mph 15.0 mph 97 % 0.12 in 7.00 W/m2
15:56 43.6 °F 42.8 °F 29.80 in SSE 9.0 mph 12.0 mph 97 % 0.09 in 5.00 W/m2
16:01 43.7 °F 42.9 °F 29.79 in SE 13.0 mph 27.0 mph 97 % 0.09 in 5.00 W/m2
16:06 43.8 °F 43.0 °F 29.79 in SSE 11.0 mph 11.0 mph 97 % 0.05 in 5.00 W/m2
16:11 44.0 °F 43.2 °F 29.78 in SE 24.0 mph 24.0 mph 97 % 0.04 in 7.00 W/m2
16:16 44.1 °F 43.3 °F 29.78 in SSE 18.0 mph 25.0 mph 97 % 0.00 in 5.00 W/m2
16:21 44.2 °F 43.4 °F 29.76 in SSE 18.0 mph 29.0 mph 97 % 0.00 in 5.00 W/m2
16:26 44.2 °F 43.4 °F 29.77 in SSW 9.0 mph 17.0 mph 97 % 0.00 in 0.00 W/m2
16:31 44.3 °F 43.5 °F 29.77 in South 26.0 mph 26.0 mph 97 % 0.04 in 0.00 W/m2
16:36 44.4 °F 43.6 °F 29.78 in South 17.0 mph 17.0 mph 97 % 0.14 in 0.00 W/m2
16:41 44.5 °F 43.7 °F 29.77 in South 18.0 mph 27.0 mph 97 % 0.19 in 0.00 W/m2
16:46 44.5 °F 43.7 °F 29.77 in South 25.0 mph 25.0 mph 97 % 0.14 in 0.00 W/m2
16:51 44.6 °F 43.8 °F 29.76 in SE 10.0 mph 20.0 mph 97 % 0.13 in 0.00 W/m2
16:56 44.7 °F 43.9 °F 29.77 in SSW 6.0 mph 11.0 mph 97 % 0.09 in 0.00 W/m2
17:01 44.8 °F 44.0 °F 29.77 in SSW 13.0 mph 15.0 mph 97 % 0.16 in 0.00 W/m2
17:06 44.8 °F 44.0 °F 29.76 in SSW 7.0 mph 14.0 mph 97 % 0.18 in 0.00 W/m2
17:11 44.9 °F 44.1 °F 29.75 in SE 14.0 mph 17.0 mph 97 % 0.10 in 0.00 W/m2
17:16 44.9 °F 44.1 °F 29.75 in SSW 8.0 mph 26.0 mph 97 % 0.10 in 0.00 W/m2
17:21 45.0 °F 44.2 °F 29.74 in SW 25.0 mph 31.0 mph 97 % 0.10 in 0.00 W/m2
17:26 45.1 °F 44.3 °F 29.74 in SSW 9.0 mph 21.0 mph 97 % 0.09 in 0.00 W/m2
17:31 45.2 °F 44.4 °F 29.73 in Calm   14.0 mph 97 % 0.12 in 0.00 W/m2
17:36 45.2 °F 44.4 °F 29.73 in South 12.0 mph 19.0 mph 97 % 0.09 in 0.00 W/m2
17:41 45.2 °F 44.4 °F 29.73 in SSE 12.0 mph 32.0 mph 97 % 0.14 in 0.00 W/m2
17:46 45.2 °F 44.4 °F 29.72 in SSE 19.0 mph 19.0 mph 97 % 0.10 in 0.00 W/m2
17:51 45.3 °F 44.5 °F 29.72 in SSE 11.0 mph 18.0 mph 97 % 0.22 in 0.00 W/m2
17:56 45.4 °F 44.6 °F 29.72 in SSE 22.0 mph 23.0 mph 97 % 0.08 in 0.00 W/m2
18:01 45.4 °F 44.6 °F 29.71 in SSE 23.0 mph 25.0 mph 97 % 0.08 in 0.00 W/m2
18:07 45.4 °F 44.6 °F 29.71 in SSW 21.0 mph 37.0 mph 97 % 0.08 in 0.00 W/m2
18:12 45.5 °F 44.7 °F 29.71 in South 13.0 mph 25.0 mph 97 % 0.07 in 0.00 W/m2
18:17 45.5 °F 44.7 °F 29.70 in SSE 16.0 mph 25.0 mph 97 % 0.05 in 0.00 W/m2
18:22 45.5 °F 44.7 °F 29.70 in South 19.0 mph 22.0 mph 97 % 0.04 in 0.00 W/m2
18:27 45.6 °F 44.8 °F 29.69 in South 11.0 mph 21.0 mph 97 % 0.09 in 0.00 W/m2
18:32 45.5 °F 44.7 °F 29.69 in SSE 16.0 mph 24.0 mph 97 % 0.24 in 0.00 W/m2
18:37 45.6 °F 44.8 °F 29.70 in South 20.0 mph 20.0 mph 97 % 0.25 in 0.00 W/m2
18:42 45.6 °F 44.8 °F 29.69 in SSW 14.0 mph 28.0 mph 97 % 0.27 in 0.00 W/m2
18:47 45.6 °F 44.8 °F 29.69 in SSE 16.0 mph 28.0 mph 97 % 0.37 in 0.00 W/m2
18:52 45.7 °F 44.9 °F 29.69 in SW 22.0 mph 25.0 mph 97 % 0.33 in 0.00 W/m2
18:57 45.8 °F 45.0 °F 29.70 in South 13.0 mph 23.0 mph 97 % 0.47 in 0.00 W/m2
19:02 45.8 °F 45.0 °F 29.69 in SSE 10.0 mph 26.0 mph 97 % 0.36 in 0.00 W/m2
19:07 45.8 °F 45.0 °F 29.69 in South 27.0 mph 42.0 mph 97 % 0.30 in 0.00 W/m2
19:12 45.8 °F 45.0 °F 29.69 in South 23.0 mph 33.0 mph 97 % 0.42 in 0.00 W/m2
19:17 45.9 °F 45.1 °F 29.69 in SSE 12.0 mph 24.0 mph 97 % 0.26 in 0.00 W/m2
19:22 45.9 °F 45.1 °F 29.72 in South 7.0 mph 23.0 mph 97 % 0.52 in 0.00 W/m2
19:27 45.9 °F 45.1 °F 29.70 in SSE 13.0 mph 22.0 mph 97 % 0.41 in 0.00 W/m2
19:32 46.0 °F 45.2 °F 29.68 in South 14.0 mph 21.0 mph 97 % 0.22 in 0.00 W/m2
19:37 46.0 °F 45.2 °F 29.67 in South 20.0 mph 26.0 mph 97 % 0.58 in 0.00 W/m2
19:42 46.0 °F 45.2 °F 29.66 in South 9.0 mph 14.0 mph 97 % 0.17 in 0.00 W/m2
19:47 46.0 °F 45.2 °F 29.67 in South 11.0 mph 25.0 mph 97 % 0.08 in 0.00 W/m2
19:52 46.1 °F 45.3 °F 29.66 in South 23.0 mph 32.0 mph 97 % 0.17 in 0.00 W/m2
19:57 46.1 °F 45.3 °F 29.67 in South 16.0 mph 18.0 mph 97 % 0.28 in 0.00 W/m2
20:02 46.1 °F 45.3 °F 29.67 in SW 12.0 mph 26.0 mph 97 % 0.15 in 0.00 W/m2
20:07 46.2 °F 45.4 °F 29.68 in South 17.0 mph 36.0 mph 97 % 0.13 in 0.00 W/m2
20:12 46.4 °F 45.6 °F 29.68 in SSE 12.0 mph 41.0 mph 97 % 0.19 in 0.00 W/m2
20:17 46.5 °F 45.7 °F 29.70 in SSW 4.0 mph 28.0 mph 97 % 0.28 in 0.00 W/m2
20:22 46.7 °F 45.9 °F 29.68 in South 20.0 mph 27.0 mph 97 % 0.34 in 0.00 W/m2
20:27 46.7 °F 45.9 °F 29.69 in SSE 5.0 mph 32.0 mph 97 % 0.45 in 0.00 W/m2
20:32 46.6 °F 45.8 °F 29.69 in SSW 10.0 mph 23.0 mph 97 % 0.34 in 0.00 W/m2
20:37 46.6 °F 45.8 °F 29.70 in South 17.0 mph 24.0 mph 97 % 0.14 in 0.00 W/m2
20:42 46.6 °F 45.8 °F 29.69 in SSW 16.0 mph 28.0 mph 97 % 0.16 in 0.00 W/m2
20:47 46.7 °F 45.9 °F 29.69 in SSW 17.0 mph 18.0 mph 97 % 0.10 in 0.00 W/m2
20:52 46.7 °F 45.9 °F 29.73 in WSW 18.0 mph 26.0 mph 97 % 0.21 in 0.00 W/m2
20:57 46.7 °F 45.9 °F 29.73 in WNW 16.0 mph 23.0 mph 97 % 1.45 in 0.00 W/m2
21:02 46.0 °F 45.2 °F 29.74 in West 17.0 mph 17.0 mph 97 % 0.29 in 0.00 W/m2
21:07 45.6 °F 44.8 °F 29.73 in SW 10.0 mph 26.0 mph 97 % 0.22 in 0.00 W/m2
21:12 45.9 °F 45.1 °F 29.74 in South 11.0 mph 23.0 mph 97 % 0.16 in 0.00 W/m2
21:17 46.1 °F 45.6 °F 29.73 in WSW 20.0 mph 24.0 mph 98 % 0.26 in 0.00 W/m2
21:22 46.1 °F 45.6 °F 29.73 in SW 28.0 mph 28.0 mph 98 % 0.17 in 0.00 W/m2
21:27 45.9 °F 45.1 °F 29.72 in SSW 9.0 mph 14.0 mph 97 % 0.08 in 0.00 W/m2
21:32 45.7 °F 44.9 °F 29.73 in SW 9.0 mph 20.0 mph 97 % 0.07 in 0.00 W/m2
21:37 45.6 °F 44.8 °F 29.73 in WSW 10.0 mph 19.0 mph 97 % 0.06 in 0.00 W/m2
21:42 45.5 °F 44.7 °F 29.74 in WSW 7.0 mph 12.0 mph 97 % 0.04 in 0.00 W/m2
21:47 45.4 °F 44.6 °F 29.74 in WSW 6.0 mph 15.0 mph 97 % 0.00 in 0.00 W/m2
21:52 45.4 °F 44.6 °F 29.74 in WSW 7.0 mph 16.0 mph 97 % 0.00 in 0.00 W/m2
21:57 45.4 °F 44.6 °F 29.74 in WSW 9.0 mph 13.0 mph 97 % 0.00 in 0.00 W/m2
22:02 45.4 °F 44.6 °F 29.74 in SW 5.0 mph 12.0 mph 97 % 0.00 in 0.00 W/m2
22:07 45.4 °F 44.6 °F 29.73 in SW 6.0 mph 14.0 mph 97 % 0.00 in 0.00 W/m2
22:12 45.4 °F 44.6 °F 29.74 in Calm   19.0 mph 97 % 0.00 in 0.00 W/m2
22:17 45.3 °F 44.5 °F 29.75 in SW 11.0 mph 17.0 mph 97 % 0.00 in 0.00 W/m2
22:22 45.2 °F 44.4 °F 29.75 in South 6.0 mph 21.0 mph 97 % 0.00 in 0.00 W/m2
22:27 45.2 °F 44.4 °F 29.75 in SSW 1.0 mph 26.0 mph 97 % 0.00 in 0.00 W/m2
22:32 45.1 °F 44.3 °F 29.76 in West 17.0 mph 22.0 mph 97 % 0.00 in 0.00 W/m2
22:38 45.0 °F 44.2 °F 29.75 in WSW 11.0 mph 16.0 mph 97 % 0.00 in 0.00 W/m2
22:43 44.8 °F 44.0 °F 29.75 in West 11.0 mph 14.0 mph 97 % 0.00 in 0.00 W/m2
22:48 44.7 °F 43.9 °F 29.75 in SW 5.0 mph 15.0 mph 97 % 0.00 in 0.00 W/m2
22:53 44.6 °F 43.8 °F 29.75 in SSE 8.0 mph 12.0 mph 97 % 0.00 in 0.00 W/m2
22:58 44.5 °F 43.7 °F 29.75 in SW 5.0 mph 21.0 mph 97 % 0.00 in 0.00 W/m2
23:03 44.4 °F 43.6 °F 29.75 in SW 8.0 mph 18.0 mph 97 % 0.00 in 0.00 W/m2
23:08 44.4 °F 43.6 °F 29.75 in SW 2.0 mph 19.0 mph 97 % 0.00 in 0.00 W/m2
23:13 44.3 °F 43.5 °F 29.74 in South 18.0 mph 18.0 mph 97 % 0.00 in 0.00 W/m2
23:18 44.3 °F 43.5 °F 29.74 in SSW 6.0 mph 15.0 mph 97 % 0.72 in 0.00 W/m2
23:23 44.3 °F 43.5 °F 29.73 in South 15.0 mph 19.0 mph 97 % 0.12 in 0.00 W/m2
23:28 44.4 °F 43.6 °F 29.73 in SSW 7.0 mph 27.0 mph 97 % 0.06 in 0.00 W/m2
23:33 44.3 °F 43.5 °F 29.74 in SSW 20.0 mph 20.0 mph 97 % 0.04 in 0.00 W/m2
23:38 44.3 °F 43.5 °F 29.73 in SSW 6.0 mph 20.0 mph 97 % 0.20 in 0.00 W/m2
23:43 44.2 °F 43.4 °F 29.73 in South 18.0 mph 25.0 mph 97 % 0.07 in 0.00 W/m2
23:48 44.1 °F 43.3 °F 29.72 in South 19.0 mph 23.0 mph 97 % 0.05 in 0.00 W/m2
23:53 44.0 °F 43.2 °F 29.73 in SSW 17.0 mph 20.0 mph 97 % 0.04 in 0.00 W/m2
23:58 43.9 °F 43.1 °F 29.73 in South 9.0 mph 19.0 mph 97 % 0.04 in 0.00 W/m2
Juneau County Weather
Compliments of Weather Underground - 4.5 mb
 WU-history PHP script courtesy of   Juneau County Weather.
powered by Cumulus v1.9.3 (1059)
Ambient Weather VWS v14.00
Top Contact Website Map Copyright © 2007 - 2018 Foresthillweather.com Never base important decisions on this or any weather information obtained from the Internet